PWSweather.com
Personal Weather Stations
Station Observations
KMNGREYC2
Grey Cloud Island, Grey Cloud Island, MN 55071

Grey Cloud IslandGrey Cloud Island, MN 55071

Lat: 44.799333, Lon: -92.987851

Elevation: 700

Station Type: Davis VP2

www.jagielski.com/weather/conditions.htm

High Low Average
Temperature 53.0°F11.7°C 38.0°F3.3°C 45.2°F7.3°C
Dew Point 41.5°F5.3°C 27.0°F-2.8°C 38.4°F3.6°C
Winds 16.0 mph 25.7 kmh Calm Calm 2.0 mph E3.2 kmh E
Wind Gusts 17.0 mph27.4 kmh 2.0 mph3.2 kmh 10.0 mph16.1 kmh
Humidity 96% 43% 79%
Pressure 30.09 in1019.0 mb 29.67 in1004.7 mb -
Precipitation 0.00 in0.0 mm - -
Hour Temp Dew Point Humidity Winds Wind Gusts Pressure Precip Precip Rate Daily Precip Total
12:00 AM 48.6°F9.2°C 39.3°F4.1°C 70% Calm Calm 2.0 mph3.2 kmh 30.10 in1019.3 mb 0.00 in0.0 mm 0.00 in0.0 mm 0.00 in0.0 mm
12:15 AM 49.1°F9.5°C 39.8°F4.3°C 70% Calm Calm 2.0 mph3.2 kmh 30.10 in1019.3 mb 0.00 in0.0 mm 0.00 in0.0 mm 0.00 in0.0 mm
12:30 AM 50.1°F10.1°C 38.4°F3.6°C 64% Calm Calm 4.0 mph6.4 kmh 30.10 in1019.3 mb 0.00 in0.0 mm 0.00 in0.0 mm 0.00 in0.0 mm
12:45 AM 51.3°F10.7°C 37.9°F3.3°C 60% Calm Calm 5.0 mph8.0 kmh 30.09 in1019.0 mb 0.00 in0.0 mm 0.00 in0.0 mm 0.00 in0.0 mm
01:00 AM 52.0°F11.1°C 38.6°F3.7°C 60% Calm Calm 5.0 mph8.0 kmh 30.09 in1019.0 mb 0.00 in0.0 mm 0.00 in0.0 mm 0.00 in0.0 mm
01:15 AM 52.5°F11.4°C 39.0°F3.9°C 60% Calm Calm 2.0 mph3.2 kmh 30.09 in1019.0 mb 0.00 in0.0 mm 0.00 in0.0 mm 0.00 in0.0 mm
01:30 AM 52.8°F11.6°C 38.9°F3.8°C 59% Calm Calm 4.0 mph6.4 kmh 30.08 in1018.6 mb 0.00 in0.0 mm 0.00 in0.0 mm 0.00 in0.0 mm
01:45 AM 52.9°F11.6°C 38.5°F3.6°C 58% Calm Calm 3.0 mph4.8 kmh 30.08 in1018.6 mb 0.00 in0.0 mm 0.00 in0.0 mm 0.00 in0.0 mm
02:00 AM 53.0°F11.7°C 39.5°F4.2°C 60% Calm Calm 3.0 mph4.8 kmh 30.08 in1018.6 mb 0.00 in0.0 mm 0.00 in0.0 mm 0.00 in0.0 mm
02:15 AM 53.0°F11.7°C 39.5°F4.2°C 60% 1.0 mph E1.6 kmh E 3.0 mph4.8 kmh 30.08 in1018.6 mb 0.00 in0.0 mm 0.00 in0.0 mm 0.00 in0.0 mm
02:30 AM 53.0°F11.7°C 39.9°F4.4°C 61% Calm Calm 3.0 mph4.8 kmh 30.08 in1018.6 mb 0.00 in0.0 mm 0.00 in0.0 mm 0.00 in0.0 mm
02:45 AM 52.9°F11.6°C 39.8°F4.3°C 61% Calm Calm 2.0 mph3.2 kmh 30.08 in1018.6 mb 0.00 in0.0 mm 0.00 in0.0 mm 0.00 in0.0 mm
03:00 AM 52.7°F11.5°C 39.6°F4.2°C 61% Calm Calm 3.0 mph4.8 kmh 30.08 in1018.6 mb 0.00 in0.0 mm 0.00 in0.0 mm 0.00 in0.0 mm
03:15 AM 52.6°F11.4°C 40.0°F4.4°C 62% Calm Calm 3.0 mph4.8 kmh 30.08 in1018.6 mb 0.00 in0.0 mm 0.00 in0.0 mm 0.00 in0.0 mm
03:30 AM 52.3°F11.3°C 39.7°F4.3°C 62% 1.0 mph ENE1.6 kmh ENE 5.0 mph8.0 kmh 30.08 in1018.6 mb 0.00 in0.0 mm 0.00 in0.0 mm 0.00 in0.0 mm
03:45 AM 52.1°F11.2°C 39.5°F4.2°C 62% 2.0 mph ESE3.2 kmh ESE 7.0 mph11.3 kmh 30.08 in1018.6 mb 0.00 in0.0 mm 0.00 in0.0 mm 0.00 in0.0 mm
04:00 AM 52.0°F11.1°C 39.8°F4.3°C 63% Calm Calm 7.0 mph11.3 kmh 30.07 in1018.3 mb 0.00 in0.0 mm 0.00 in0.0 mm 0.00 in0.0 mm
04:15 AM 51.8°F11.0°C 39.2°F4.0°C 62% 2.0 mph ENE3.2 kmh ENE 5.0 mph8.0 kmh 30.07 in1018.3 mb 0.00 in0.0 mm 0.00 in0.0 mm 0.00 in0.0 mm
04:30 AM 51.7°F10.9°C 39.1°F3.9°C 62% Calm Calm 10.0 mph16.1 kmh 30.07 in1018.3 mb 0.00 in0.0 mm 0.00 in0.0 mm 0.00 in0.0 mm
04:45 AM 51.5°F10.8°C 38.5°F3.6°C 61% 2.0 mph NE3.2 kmh NE 7.0 mph11.3 kmh 30.06 in1017.9 mb 0.00 in0.0 mm 0.00 in0.0 mm 0.00 in0.0 mm
05:00 AM 51.4°F10.8°C 38.8°F3.8°C 62% 5.0 mph ESE8.0 kmh ESE 7.0 mph11.3 kmh 30.07 in1018.3 mb 0.00 in0.0 mm 0.00 in0.0 mm 0.00 in0.0 mm
05:15 AM 51.2°F10.7°C 38.2°F3.4°C 61% 2.0 mph SE3.2 kmh SE 5.0 mph8.0 kmh 30.07 in1018.3 mb 0.00 in0.0 mm 0.00 in0.0 mm 0.00 in0.0 mm
05:30 AM 51.0°F10.6°C 37.2°F2.9°C 59% 3.0 mph NE4.8 kmh NE 9.0 mph14.5 kmh 30.07 in1018.3 mb 0.00 in0.0 mm 0.00 in0.0 mm 0.00 in0.0 mm
05:45 AM 50.8°F10.4°C 37.0°F2.8°C 59% Calm Calm 9.0 mph14.5 kmh 30.07 in1018.3 mb 0.00 in0.0 mm 0.00 in0.0 mm 0.00 in0.0 mm
06:00 AM 50.3°F10.2°C 35.7°F2.1°C 57% Calm Calm 9.0 mph14.5 kmh 30.07 in1018.3 mb 0.00 in0.0 mm 0.00 in0.0 mm 0.00 in0.0 mm
06:15 AM 49.8°F9.9°C 33.8°F1.0°C 54% 3.0 mph E4.8 kmh E 8.0 mph12.9 kmh 30.06 in1017.9 mb 0.00 in0.0 mm 0.00 in0.0 mm 0.00 in0.0 mm
06:30 AM 49.5°F9.7°C 34.0°F1.1°C 55% 2.0 mph NE3.2 kmh NE 8.0 mph12.9 kmh 30.06 in1017.9 mb 0.00 in0.0 mm 0.00 in0.0 mm 0.00 in0.0 mm
06:45 AM 49.2°F9.6°C 34.2°F1.2°C 56% Calm Calm 11.0 mph17.7 kmh 30.05 in1017.6 mb 0.00 in0.0 mm 0.00 in0.0 mm 0.00 in0.0 mm
07:00 AM 48.8°F9.3°C 31.5°F-0.3°C 51% 2.0 mph NE3.2 kmh NE 11.0 mph17.7 kmh 30.05 in1017.6 mb 0.00 in0.0 mm 0.00 in0.0 mm 0.00 in0.0 mm
07:15 AM 48.6°F9.2°C 30.8°F-0.7°C 50% 1.0 mph E1.6 kmh E 9.0 mph14.5 kmh 30.04 in1017.3 mb 0.00 in0.0 mm 0.00 in0.0 mm 0.00 in0.0 mm
07:30 AM 48.5°F9.2°C 29.2°F-1.6°C 47% Calm Calm 10.0 mph16.1 kmh 30.03 in1016.9 mb 0.00 in0.0 mm 0.00 in0.0 mm 0.00 in0.0 mm
07:45 AM 48.4°F9.1°C 29.1°F-1.6°C 47% 1.0 mph ENE1.6 kmh ENE 9.0 mph14.5 kmh 30.04 in1017.3 mb 0.00 in0.0 mm 0.00 in0.0 mm 0.00 in0.0 mm
08:00 AM 48.4°F9.1°C 27.0°F-2.8°C 43% 7.0 mph NE11.3 kmh NE 9.0 mph14.5 kmh 30.04 in1017.3 mb 0.00 in0.0 mm 0.00 in0.0 mm 0.00 in0.0 mm
08:15 AM 48.1°F8.9°C 27.8°F-2.3°C 45% 5.0 mph S8.0 kmh S 11.0 mph17.7 kmh 30.03 in1016.9 mb 0.00 in0.0 mm 0.00 in0.0 mm 0.00 in0.0 mm
08:30 AM 47.7°F8.7°C 29.0°F-1.7°C 48% 1.0 mph NE1.6 kmh NE 13.0 mph20.9 kmh 30.03 in1016.9 mb 0.00 in0.0 mm 0.00 in0.0 mm 0.00 in0.0 mm
08:45 AM 47.3°F8.5°C 30.1°F-1.1°C 51% 2.0 mph ESE3.2 kmh ESE 12.0 mph19.3 kmh 30.02 in1016.6 mb 0.00 in0.0 mm 0.00 in0.0 mm 0.00 in0.0 mm
09:00 AM 47.2°F8.4°C 33.2°F0.7°C 58% 5.0 mph E8.0 kmh E 12.0 mph19.3 kmh 30.01 in1016.3 mb 0.00 in0.0 mm 0.00 in0.0 mm 0.00 in0.0 mm
09:15 AM 46.8°F8.2°C 32.0°F0.0°C 56% 2.0 mph E3.2 kmh E 11.0 mph17.7 kmh 30.00 in1015.9 mb 0.00 in0.0 mm 0.00 in0.0 mm 0.00 in0.0 mm
09:30 AM 46.8°F8.2°C 32.4°F0.2°C 57% 1.0 mph N1.6 kmh N 11.0 mph17.7 kmh 29.99 in1015.6 mb 0.00 in0.0 mm 0.00 in0.0 mm 0.00 in0.0 mm
09:45 AM 46.7°F8.2°C 34.0°F1.1°C 61% 1.0 mph NE1.6 kmh NE 8.0 mph12.9 kmh 29.99 in1015.6 mb 0.00 in0.0 mm 0.00 in0.0 mm 0.00 in0.0 mm
10:00 AM 46.5°F8.1°C 35.8°F2.1°C 66% 2.0 mph N3.2 kmh N 10.0 mph16.1 kmh 29.98 in1015.2 mb 0.00 in0.0 mm 0.00 in0.0 mm 0.00 in0.0 mm
10:15 AM 46.0°F7.8°C 37.5°F3.1°C 72% Calm Calm 4.0 mph6.4 kmh 29.98 in1015.2 mb 0.01 in0.3 mm 0.04 in1.0 mm 0.01 in0.3 mm
10:30 AM 45.5°F7.5°C 39.1°F3.9°C 78% Calm Calm 7.0 mph11.3 kmh 29.98 in1015.2 mb 0.03 in0.8 mm 0.08 in2.0 mm 0.03 in0.8 mm
10:45 AM 44.8°F7.1°C 39.0°F3.9°C 80% Calm Calm 9.0 mph14.5 kmh 29.98 in1015.2 mb 0.05 in1.3 mm 0.08 in2.0 mm 0.05 in1.3 mm
11:00 AM 44.4°F6.9°C 39.6°F4.2°C 83% 2.0 mph ESE3.2 kmh ESE 9.0 mph14.5 kmh 29.97 in1014.9 mb 0.06 in1.5 mm 0.01 in0.3 mm 0.06 in1.5 mm
11:15 AM 44.0°F6.7°C 40.1°F4.5°C 86% 3.0 mph NE4.8 kmh NE 8.0 mph12.9 kmh 29.96 in1014.6 mb 0.08 in2.0 mm 0.08 in2.0 mm 0.08 in2.0 mm
11:30 AM 43.7°F6.5°C 40.1°F4.5°C 87% 2.0 mph ENE3.2 kmh ENE 10.0 mph16.1 kmh 29.95 in1014.2 mb 0.08 in2.0 mm 0.00 in0.0 mm 0.08 in2.0 mm
11:45 AM 43.6°F6.4°C 40.6°F4.8°C 89% 3.0 mph NE4.8 kmh NE 11.0 mph17.7 kmh 29.93 in1013.5 mb 0.06 in1.5 mm 0.00 in0.0 mm 0.08 in2.0 mm
12:00 PM 43.4°F6.3°C 40.7°F4.8°C 90% 6.0 mph SE9.7 kmh SE 13.0 mph20.9 kmh 29.91 in1012.9 mb 0.07 in1.8 mm 0.01 in0.3 mm 0.09 in2.3 mm
12:15 PM 43.4°F6.3°C 40.7°F4.8°C 90% 4.0 mph WNW6.4 kmh WNW 10.0 mph16.1 kmh 29.90 in1012.5 mb 0.04 in1.0 mm 0.00 in0.0 mm 0.09 in2.3 mm
12:30 PM 43.4°F6.3°C 41.0°F5.0°C 91% 2.0 mph ENE3.2 kmh ENE 10.0 mph16.1 kmh 29.90 in1012.5 mb 0.07 in1.8 mm 0.12 in3.0 mm 0.12 in3.0 mm
12:45 PM 43.4°F6.3°C 41.2°F5.1°C 92% 9.0 mph NE14.5 kmh NE 12.0 mph19.3 kmh 29.88 in1011.9 mb 0.11 in2.8 mm 0.16 in4.1 mm 0.16 in4.1 mm
01:00 PM 43.3°F6.3°C 41.1°F5.1°C 92% 7.0 mph N11.3 kmh N 12.0 mph19.3 kmh 29.86 in1011.2 mb 0.15 in3.8 mm 0.05 in1.3 mm 0.20 in5.1 mm
01:15 PM 43.3°F6.3°C 41.4°F5.2°C 93% 9.0 mph NE14.5 kmh NE 11.0 mph17.7 kmh 29.86 in1011.2 mb 0.20 in5.1 mm 0.20 in5.1 mm 0.25 in6.4 mm
01:30 PM 43.2°F6.2°C 41.3°F5.2°C 93% 2.0 mph NE3.2 kmh NE 11.0 mph17.7 kmh 29.86 in1011.2 mb 0.24 in6.1 mm 0.16 in4.1 mm 0.29 in7.4 mm
01:45 PM 43.1°F6.2°C 41.2°F5.1°C 93% Calm Calm 9.0 mph14.5 kmh 29.84 in1010.5 mb 0.22 in5.6 mm 0.00 in0.0 mm 0.29 in7.4 mm
02:00 PM 43.1°F6.2°C 41.2°F5.1°C 93% 3.0 mph N4.8 kmh N 11.0 mph17.7 kmh 29.83 in1010.2 mb 0.25 in6.4 mm 0.04 in1.0 mm 0.32 in8.1 mm
02:15 PM 43.0°F6.1°C 41.4°F5.2°C 94% 4.0 mph E6.4 kmh E 13.0 mph20.9 kmh 29.82 in1009.8 mb 0.19 in4.8 mm 0.00 in0.0 mm 0.32 in8.1 mm
02:30 PM 43.1°F6.2°C 41.5°F5.3°C 94% 3.0 mph NNE4.8 kmh NNE 13.0 mph20.9 kmh 29.81 in1009.5 mb 0.24 in6.1 mm 0.20 in5.1 mm 0.37 in9.4 mm
02:45 PM 43.0°F6.1°C 41.4°F5.2°C 94% 6.0 mph NE9.7 kmh NE 10.0 mph16.1 kmh 29.79 in1008.8 mb 0.20 in5.1 mm 0.00 in0.0 mm 0.37 in9.4 mm
03:00 PM 42.9°F6.1°C 41.3°F5.2°C 94% Calm Calm 11.0 mph17.7 kmh 29.78 in1008.5 mb 0.25 in6.4 mm 0.07 in1.8 mm 0.42 in10.7 mm
03:15 PM 42.7°F5.9°C 41.1°F5.1°C 94% 16.0 mph NE25.7 kmh NE 16.0 mph25.7 kmh 29.78 in1008.5 mb 0.23 in5.8 mm 0.00 in0.0 mm 0.42 in10.7 mm
03:30 PM 42.5°F5.8°C 41.2°F5.1°C 95% 12.0 mph N19.3 kmh N 16.0 mph25.7 kmh 29.75 in1007.5 mb 0.27 in6.9 mm 0.16 in4.1 mm 0.46 in11.7 mm
04:00 PM 42.5°F5.8°C 41.2°F5.1°C 95% 2.0 mph N3.2 kmh N 13.0 mph20.9 kmh 29.73 in1006.8 mb 0.28 in7.1 mm 0.02 in0.5 mm 0.47 in11.9 mm
04:15 PM 42.5°F5.8°C 41.2°F5.1°C 95% 6.0 mph N9.7 kmh N 12.0 mph19.3 kmh 29.74 in1007.1 mb 0.21 in5.3 mm 0.00 in0.0 mm 0.47 in11.9 mm
04:30 PM 42.6°F5.9°C 41.3°F5.2°C 95% 2.0 mph SE3.2 kmh SE 12.0 mph19.3 kmh 29.75 in1007.5 mb 0.26 in6.6 mm 0.20 in5.1 mm 0.52 in13.2 mm
04:45 PM 42.6°F5.9°C 41.3°F5.2°C 95% 2.0 mph NE3.2 kmh NE 13.0 mph20.9 kmh 29.75 in1007.5 mb 0.19 in4.8 mm 0.00 in0.0 mm 0.52 in13.2 mm
05:00 PM 42.6°F5.9°C 41.3°F5.2°C 95% 3.0 mph NNE4.8 kmh NNE 13.0 mph20.9 kmh 29.75 in1007.5 mb 0.21 in5.3 mm 0.03 in0.8 mm 0.54 in13.7 mm
05:15 PM 42.5°F5.8°C 41.2°F5.1°C 95% 1.0 mph SE1.6 kmh SE 8.0 mph12.9 kmh 29.75 in1007.5 mb 0.13 in3.3 mm 0.00 in0.0 mm 0.54 in13.7 mm
05:30 PM 42.4°F5.8°C 41.1°F5.1°C 95% 3.0 mph N4.8 kmh N 10.0 mph16.1 kmh 29.75 in1007.5 mb 0.14 in3.6 mm 0.04 in1.0 mm 0.55 in14.0 mm
05:45 PM 42.4°F5.8°C 41.3°F5.2°C 96% 3.0 mph N4.8 kmh N 14.0 mph22.5 kmh 29.75 in1007.5 mb 0.08 in2.0 mm 0.00 in0.0 mm 0.55 in14.0 mm
06:00 PM 42.4°F5.8°C 41.3°F5.2°C 96% Calm Calm 14.0 mph22.5 kmh 29.74 in1007.1 mb 0.09 in2.3 mm 0.01 in0.3 mm 0.56 in14.2 mm
06:15 PM 42.3°F5.7°C 41.2°F5.1°C 96% Calm Calm 7.0 mph11.3 kmh 29.74 in1007.1 mb 0.07 in1.8 mm 0.00 in0.0 mm 0.56 in14.2 mm
06:30 PM 42.2°F5.7°C 41.1°F5.1°C 96% 1.0 mph WNW1.6 kmh WNW 10.0 mph16.1 kmh 29.74 in1007.1 mb 0.08 in2.0 mm 0.04 in1.0 mm 0.57 in14.5 mm
06:45 PM 42.1°F5.6°C 41.0°F5.0°C 96% 3.0 mph SE4.8 kmh SE 11.0 mph17.7 kmh 29.73 in1006.8 mb 0.06 in1.5 mm 0.00 in0.0 mm 0.57 in14.5 mm
07:00 PM 41.9°F5.5°C 40.9°F4.9°C 96% 3.0 mph NNE4.8 kmh NNE 13.0 mph20.9 kmh 29.72 in1006.4 mb 0.06 in1.5 mm 0.00 in0.0 mm 0.57 in14.5 mm
07:15 PM 41.8°F5.4°C 40.8°F4.9°C 96% Calm Calm 13.0 mph20.9 kmh 29.73 in1006.8 mb 0.04 in1.0 mm 0.00 in0.0 mm 0.57 in14.5 mm
07:30 PM 41.6°F5.3°C 40.6°F4.8°C 96% 3.0 mph N4.8 kmh N 15.0 mph24.1 kmh 29.72 in1006.4 mb 0.04 in1.0 mm 0.00 in0.0 mm 0.57 in14.5 mm
07:45 PM 41.5°F5.3°C 40.5°F4.7°C 96% 3.0 mph NE4.8 kmh NE 12.0 mph19.3 kmh 29.73 in1006.8 mb 0.02 in0.5 mm 0.00 in0.0 mm 0.57 in14.5 mm
08:00 PM 41.4°F5.2°C 40.4°F4.7°C 96% Calm Calm 12.0 mph19.3 kmh 29.73 in1006.8 mb 0.03 in0.8 mm 0.01 in0.3 mm 0.58 in14.7 mm
08:15 PM 41.2°F5.1°C 40.2°F4.6°C 96% 2.0 mph E3.2 kmh E 16.0 mph25.7 kmh 29.72 in1006.4 mb 0.03 in0.8 mm 0.00 in0.0 mm 0.58 in14.7 mm
08:30 PM 41.0°F5.0°C 40.0°F4.4°C 96% 6.0 mph NNE9.7 kmh NNE 16.0 mph25.7 kmh 29.71 in1006.1 mb 0.04 in1.0 mm 0.04 in1.0 mm 0.59 in15.0 mm
08:45 PM 40.7°F4.8°C 39.7°F4.3°C 96% 8.0 mph NE12.9 kmh NE 14.0 mph22.5 kmh 29.71 in1006.1 mb 0.04 in1.0 mm 0.00 in0.0 mm 0.59 in15.0 mm
09:00 PM 40.5°F4.7°C 39.5°F4.2°C 96% 8.0 mph NE12.9 kmh NE 14.0 mph22.5 kmh 29.70 in1005.8 mb 0.04 in1.0 mm 0.00 in0.0 mm 0.59 in15.0 mm
09:15 PM 40.4°F4.7°C 39.4°F4.1°C 96% 4.0 mph NW6.4 kmh NW 17.0 mph27.4 kmh 29.70 in1005.8 mb 0.02 in0.5 mm 0.00 in0.0 mm 0.59 in15.0 mm
09:30 PM 40.3°F4.6°C 39.3°F4.1°C 96% 2.0 mph N3.2 kmh N 17.0 mph27.4 kmh 29.70 in1005.8 mb 0.03 in0.8 mm 0.04 in1.0 mm 0.60 in15.2 mm
09:45 PM 40.3°F4.6°C 39.3°F4.1°C 96% 4.0 mph NE6.4 kmh NE 14.0 mph22.5 kmh 29.70 in1005.8 mb 0.04 in1.0 mm 0.04 in1.0 mm 0.61 in15.5 mm
10:00 PM 40.2°F4.6°C 39.2°F4.0°C 96% 5.0 mph N8.0 kmh N 14.0 mph22.5 kmh 29.69 in1005.4 mb 0.05 in1.3 mm 0.01 in0.3 mm 0.62 in15.7 mm
10:15 PM 40.2°F4.6°C 39.2°F4.0°C 96% 1.0 mph NNW1.6 kmh NNW 13.0 mph20.9 kmh 29.68 in1005.1 mb 0.05 in1.3 mm 0.00 in0.0 mm 0.62 in15.7 mm
10:30 PM 40.2°F4.6°C 39.2°F4.0°C 96% Calm Calm 13.0 mph20.9 kmh 29.69 in1005.4 mb 0.05 in1.3 mm 0.00 in0.0 mm 0.62 in15.7 mm
10:45 PM 39.9°F4.4°C 38.9°F3.8°C 96% 1.0 mph ENE1.6 kmh ENE 12.0 mph19.3 kmh 29.68 in1005.1 mb 0.04 in1.0 mm 0.00 in0.0 mm 0.62 in15.7 mm
11:00 PM 39.6°F4.2°C 38.6°F3.7°C 96% 2.0 mph NE3.2 kmh NE 12.0 mph19.3 kmh 29.68 in1005.1 mb 0.04 in1.0 mm 0.00 in0.0 mm 0.62 in15.7 mm
11:15 PM 39.3°F4.1°C 38.3°F3.5°C 96% Calm Calm 7.0 mph11.3 kmh 29.69 in1005.4 mb 0.01 in0.3 mm 0.00 in0.0 mm 0.62 in15.7 mm
11:30 PM 38.9°F3.8°C 37.9°F3.3°C 96% Calm Calm 11.0 mph17.7 kmh 29.68 in1005.1 mb 0.02 in0.5 mm 0.04 in1.0 mm 0.63 in16.0 mm
11:45 PM 38.4°F3.6°C 37.4°F3.0°C 96% 2.0 mph NW3.2 kmh NW 9.0 mph14.5 kmh 29.68 in1005.1 mb 0.01 in0.3 mm 0.00 in0.0 mm 0.63 in16.0 mm